Time;durP1;ratioP1;P1;durP2;ratioP2;P2;SDS_P1;SDS_P2;PMS_P1;PMS_P2;Temp;Humidity;BMP_temperature;BMP_pressure;BME280_temperature;BME280_humidity;BME280_pressure;Samples;Min_cycle;Max_cycle;Signal;HPM_P1;HPM_P2
2021/11/29 00:00:37;;;;;;;17.45;8.27;;;;;;;13.74;40.77;101298.59;5014938;28;20025;-75
2021/11/29 00:03:08;;;;;;;12.88;6.80;;;;;;;13.91;40.40;101300.56;5014891;28;20026;-76
2021/11/29 00:05:33;;;;;;;16.23;7.80;;;;;;;13.80;40.55;101308.28;5014924;28;20104;-77
2021/11/29 00:08:01;;;;;;;11.50;6.80;;;;;;;13.97;40.25;101321.25;5014811;28;20092;-75
2021/11/29 00:10:28;;;;;;;12.15;7.20;;;;;;;13.91;40.58;101308.81;5014720;28;20436;-75
2021/11/29 00:12:54;;;;;;;11.88;6.28;;;;;;;13.84;40.71;101312.03;5014725;28;20420;-75
2021/11/29 00:15:20;;;;;;;9.85;7.28;;;;;;;13.99;40.18;101305.25;5014721;28;20048;-82
2021/11/29 00:17:46;;;;;;;12.18;6.63;;;;;;;13.97;40.14;101310.25;5014632;28;20097;-82
2021/11/29 00:20:13;;;;;;;11.55;7.35;;;;;;;14.05;40.00;101299.25;5014595;28;20104;-75
2021/11/29 00:22:39;;;;;;;10.70;6.43;;;;;;;14.05;40.11;101306.69;5014678;28;20064;-81
2021/11/29 00:25:07;;;;;;;10.10;6.88;;;;;;;13.95;40.35;101307.03;5014442;28;20401;-81
2021/11/29 00:27:32;;;;;;;12.25;6.78;;;;;;;14.11;39.94;101300.72;5014551;28;20492;-82
2021/11/29 00:29:58;;;;;;;11.55;7.18;;;;;;;14.03;39.97;101304.28;5014414;28;20057;-81
2021/11/29 00:32:24;;;;;;;9.95;6.82;;;;;;;14.02;40.15;101301.84;5014427;28;20053;-81
2021/11/29 00:34:50;;;;;;;10.52;6.03;;;;;;;13.67;40.90;101301.00;5014319;28;20061;-82
2021/11/29 00:37:16;;;;;;;11.00;6.50;;;;;;;13.74;40.43;101302.13;5014318;28;20473;-82
2021/11/29 00:39:42;;;;;;;14.18;7.38;;;;;;;13.71;40.43;101296.50;5014500;28;20041;-81
2021/11/29 00:42:08;;;;;;;10.00;6.03;;;;;;;13.61;40.55;101289.38;5014194;28;20033;-76
2021/11/29 00:44:33;;;;;;;10.43;6.30;;;;;;;13.63;40.67;101294.53;5014251;28;20030;-81
2021/11/29 00:46:59;;;;;;;10.48;6.20;;;;;;;13.58;40.34;101296.28;5014178;28;20026;-81
2021/11/29 00:49:25;;;;;;;11.40;6.07;;;;;;;13.58;40.32;101290.81;5014139;28;20037;-79
2021/11/29 00:51:51;;;;;;;12.15;7.03;;;;;;;13.58;40.28;101296.28;5013975;28;20033;-76
2021/11/29 00:54:16;;;;;;;9.18;5.90;;;;;;;13.58;40.08;101303.72;5013012;28;20045;-81
2021/11/29 00:56:42;;;;;;;13.40;6.95;;;;;;;13.48;40.39;101309.53;5013934;28;20091;-81
2021/11/29 00:59:08;;;;;;;11.80;6.22;;;;;;;13.53;40.17;101309.38;5013806;28;20108;-80
2021/11/29 01:01:35;;;;;;;9.82;6.63;;;;;;;13.32;40.63;101306.41;5013797;28;20576;-74
2021/11/29 01:04:00;;;;;;;10.52;6.15;;;;;;;13.35;40.42;101296.72;5013823;28;20509;-75
2021/11/29 01:06:26;;;;;;;10.68;6.20;;;;;;;13.22;40.65;101304.72;5013795;28;20101;-74
2021/11/29 01:08:52;;;;;;;13.45;6.43;;;;;;;13.19;40.86;101299.84;5013585;28;20135;-75
2021/11/29 01:11:17;;;;;;;11.23;6.53;;;;;;;13.29;40.68;101305.09;5013627;28;20030;-76
2021/11/29 01:13:43;;;;;;;10.43;6.68;;;;;;;13.29;40.51;101304.28;5013581;28;20469;-74
2021/11/29 01:16:09;;;;;;;11.45;6.40;;;;;;;13.18;40.76;101314.72;5013563;28;20476;-74
2021/11/29 01:18:35;;;;;;;13.30;6.70;;;;;;;13.30;40.70;101305.91;5013546;28;20480;-74
2021/11/29 01:21:01;;;;;;;11.02;6.95;;;;;;;13.36;40.55;101295.59;5013454;28;20041;-75
2021/11/29 01:23:27;;;;;;;9.43;5.65;;;;;;;13.37;40.62;101298.00;4995796;28;20030;-75
2021/11/29 01:25:54;;;;;;;11.18;6.03;;;;;;;13.39;40.88;101287.53;5013232;28;20050;-81
2021/11/29 01:28:21;;;;;;;12.93;6.43;;;;;;;13.40;40.82;101293.84;4995634;28;20089;-75
2021/11/29 01:30:47;;;;;;;11.80;6.45;;;;;;;13.36;40.88;101288.16;5012960;28;20038;-75
2021/11/29 01:33:13;;;;;;;12.05;5.78;;;;;;;13.48;40.79;101301.28;4995256;28;20568;-75
2021/11/29 01:35:39;;;;;;;17.65;7.55;;;;;;;13.51;40.74;101300.63;5013096;28;20109;-74
2021/11/29 01:38:05;;;;;;;8.63;5.38;;;;;;;13.44;40.97;101300.28;5013151;28;20109;-75
2021/11/29 01:40:31;;;;;;;10.60;5.50;;;;;;;13.52;40.87;101302.25;5013207;28;20030;-77
2021/11/29 01:43:05;;;;;;;11.70;6.07;;;;;;;13.53;40.91;101301.16;5013301;28;20080;-78
2021/11/29 01:45:37;;;;;;;10.15;5.90;;;;;;;13.45;41.17;101299.16;5013224;28;20034;-81
2021/11/29 01:48:03;;;;;;;13.68;6.38;;;;;;;13.49;41.10;101295.47;5013141;28;20113;-76
2021/11/29 01:50:29;;;;;;;9.82;5.63;;;;;;;13.37;41.34;101288.97;5013109;28;20037;-78
2021/11/29 01:52:55;;;;;;;10.50;6.03;;;;;;;13.41;41.31;101295.44;5012685;28;20384;-75
2021/11/29 01:55:21;;;;;;;10.90;5.70;;;;;;;13.51;41.37;101297.88;5012946;28;20026;-81
2021/11/29 01:57:47;;;;;;;8.77;5.35;;;;;;;13.43;41.41;101306.91;5013047;28;20037;-75
2021/11/29 02:00:18;;;;;;;8.98;5.90;;;;;;;13.52;41.28;101307.75;5012866;28;20021;-75
2021/11/29 02:02:48;;;;;;;9.65;5.82;;;;;;;13.57;41.11;101307.59;5012993;28;20107;-81
2021/11/29 02:05:13;;;;;;;;;;;;;;;13.65;41.02;101312.31;4995372;28;20032;-75
2021/11/29 02:07:41;;;;;;;9.82;5.40;;;;;;;13.77;40.74;101307.00;5012744;28;20004;-74
2021/11/29 02:10:07;;;;;;;9.95;5.70;;;;;;;13.77;40.84;101309.75;5012834;28;20080;-74
2021/11/29 02:12:33;;;;;;;7.38;5.55;;;;;;;13.83;40.76;101313.16;5012718;28;20026;-75
2021/11/29 02:14:59;;;;;;;10.38;5.75;;;;;;;13.82;40.83;101311.53;5011272;28;20026;-75
2021/11/29 02:17:24;;;;;;;10.15;5.82;;;;;;;13.83;40.75;101313.16;5012158;28;20065;-74
2021/11/29 02:19:51;;;;;;;10.02;6.65;;;;;;;13.74;40.93;101313.13;5012598;28;20096;-75
2021/11/29 02:22:17;;;;;;;10.00;6.00;;;;;;;13.79;40.81;101314.91;5012645;28;20034;-74
2021/11/29 02:24:43;;;;;;;9.52;5.07;;;;;;;13.83;40.85;101315.91;5012617;28;20033;-75
2021/11/29 02:27:09;;;;;;;10.18;5.88;;;;;;;13.73;41.17;101314.25;5012439;28;20432;-81
2021/11/29 02:29:36;;;;;;;11.02;6.00;;;;;;;13.81;40.75;101309.91;5012583;28;20030;-80
2021/11/29 02:32:03;;;;;;;9.00;5.63;;;;;;;13.89;40.71;101312.66;5012615;28;20080;-80
2021/11/29 02:34:30;;;;;;;6.63;4.75;;;;;;;13.85;41.05;101310.91;4995088;28;20026;-81
2021/11/29 02:36:59;;;;;;;8.32;5.85;;;;;;;13.96;40.80;101305.88;5012588;28;20087;-76
2021/11/29 02:39:27;;;;;;;8.43;5.22;;;;;;;13.93;40.80;101312.03;5012702;28;20026;-81
2021/11/29 02:41:55;;;;;;;10.30;5.35;;;;;;;14.01;40.70;101311.22;5012636;28;20025;-80
2021/11/29 02:44:21;;;;;;;11.02;6.15;;;;;;;14.09;40.59;101316.72;5012795;28;20033;-82
2021/11/29 02:46:46;;;;;;;9.23;5.55;;;;;;;14.14;40.68;101321.28;5012588;28;20026;-75
2021/11/29 02:49:14;;;;;;;9.20;5.88;;;;;;;14.09;40.87;101318.66;4994681;28;20061;-81
2021/11/29 02:51:52;;;;;;;8.27;5.35;;;;;;;14.10;40.74;101317.53;5012578;28;20506;-75
2021/11/29 02:54:24;;;;;;;11.32;5.18;;;;;;;14.08;40.70;101317.88;4994963;28;20059;-75
2021/11/29 02:56:52;;;;;;;13.68;5.60;;;;;;;14.05;40.86;101317.69;5012487;28;20388;-82
2021/11/29 02:59:23;;;;;;;9.30;5.38;;;;;;;14.05;40.75;101318.50;5012372;28;20029;-76
2021/11/29 03:01:52;;;;;;;10.35;5.85;;;;;;;14.10;40.62;101312.03;5012361;28;20037;-78
2021/11/29 03:04:23;;;;;;;10.57;5.65;;;;;;;14.05;40.82;101315.75;5012325;28;20030;-75
2021/11/29 03:06:49;;;;;;;11.15;6.47;;;;;;;14.00;40.92;101318.66;5012251;28;20560;-75
2021/11/29 03:09:15;;;;;;;11.57;6.75;;;;;;;13.99;40.82;101319.00;5012176;28;20476;-74
2021/11/29 03:11:42;;;;;;;14.88;7.03;;;;;;;13.95;41.03;101313.31;5012180;28;20030;-75
2021/11/29 03:14:07;;;;;;;10.50;6.97;;;;;;;13.92;41.02;101313.97;5012186;28;20029;-76
2021/11/29 03:16:34;;;;;;;11.25;7.40;;;;;;;13.83;41.27;101313.97;5012158;28;20026;-76
2021/11/29 03:19:00;;;;;;;12.02;7.47;;;;;;;13.77;41.41;101315.25;5015199;28;20116;-79
2021/11/29 03:21:27;;;;;;;12.77;7.13;;;;;;;13.77;41.58;101320.75;5015699;28;20018;-75
2021/11/29 03:23:55;;;;;;;11.18;7.82;;;;;;;13.72;41.61;101320.88;5015665;28;20026;-74
2021/11/29 03:26:23;;;;;;;11.85;7.25;;;;;;;13.68;41.84;101311.69;5015366;28;20097;-75
2021/11/29 03:28:54;;;;;;;15.25;7.32;;;;;;;13.70;41.71;101314.91;5015498;28;20025;-75
2021/11/29 03:31:21;;;;;;;10.68;7.40;;;;;;;13.82;41.53;101315.06;5015541;28;20087;-75
2021/11/29 03:33:47;;;;;;;14.85;8.43;;;;;;;13.94;41.23;101302.66;5015506;28;20523;-74
2021/11/29 03:36:13;;;;;;;10.15;7.53;;;;;;;14.01;41.16;101303.00;5015466;28;20025;-80
2021/11/29 03:38:40;;;;;;;10.77;7.47;;;;;;;13.96;41.50;101303.13;5015450;28;20476;-75
2021/11/29 03:41:08;;;;;;;17.00;8.60;;;;;;;13.83;41.79;101302.19;5015313;28;20029;-75
2021/11/29 03:43:34;;;;;;;12.18;8.32;;;;;;;13.96;41.46;101300.41;4997710;28;20026;-76
2021/11/29 03:46:00;;;;;;;18.45;8.60;;;;;;;13.92;41.64;101299.44;5015258;28;20017;-76
2021/11/29 03:48:26;;;;;;;15.98;9.18;;;;;;;13.82;41.84;101298.59;5015095;28;20036;-75
2021/11/29 03:50:52;;;;;;;11.20;8.18;;;;;;;13.85;41.70;101295.22;5015111;28;20026;-76
2021/11/29 03:53:18;;;;;;;11.02;7.55;;;;;;;13.71;42.21;101300.03;5015057;28;20084;-75
2021/11/29 03:55:44;;;;;;;13.20;7.85;;;;;;;13.77;42.07;101298.78;5015106;28;20084;-75
2021/11/29 03:58:09;;;;;;;10.60;8.02;;;;;;;13.94;41.82;101300.72;5015093;28;20424;-76
2021/11/29 04:00:35;;;;;;;13.35;7.75;;;;;;;14.07;41.67;101296.22;5014955;28;20032;-75
2021/11/29 04:03:01;;;;;;;11.25;7.43;;;;;;;14.15;41.44;101296.22;5014989;28;20072;-75
2021/11/29 04:05:27;;;;;;;12.98;7.60;;;;;;;14.22;41.18;101298.47;4997369;28;20030;-75
2021/11/29 04:07:53;;;;;;;12.52;7.38;;;;;;;14.21;41.35;101294.13;5014801;28;20060;-75
2021/11/29 04:10:18;;;;;;;11.38;6.60;;;;;;;14.12;41.77;101299.59;5014784;28;20037;-80
2021/11/29 04:12:44;;;;;;;11.57;6.80;;;;;;;14.02;41.83;101296.38;5014693;28;20026;-75
2021/11/29 04:15:10;;;;;;;10.65;5.97;;;;;;;14.05;41.76;101298.44;5014653;28;20080;-75
2021/11/29 04:17:39;;;;;;;10.18;6.15;;;;;;;14.14;41.66;101302.84;5014636;28;20109;-75
2021/11/29 04:20:05;;;;;;;14.02;7.45;;;;;;;14.22;41.47;101294.91;5014490;28;20037;-75
2021/11/29 04:22:31;;;;;;;10.63;6.57;;;;;;;14.16;41.70;101306.06;5014550;28;20030;-75
2021/11/29 04:24:59;;;;;;;11.68;7.68;;;;;;;14.10;41.63;101301.84;5014195;28;20029;-74
2021/11/29 04:27:28;;;;;;;8.63;6.00;;;;;;;14.14;41.68;101307.53;5014462;28;20026;-74
2021/11/29 04:29:53;;;;;;;11.68;6.80;;;;;;;14.20;41.52;101306.22;5014126;28;20061;-74
2021/11/29 04:32:19;;;;;;;10.85;6.85;;;;;;;14.24;41.79;101311.88;5014388;28;20111;-75
2021/11/29 04:34:45;;;;;;;13.60;6.90;;;;;;;14.27;41.41;101314.78;5014324;28;20578;-80
2021/11/29 04:37:10;;;;;;;11.48;5.75;;;;;;;14.14;41.82;101302.03;5014327;28;20029;-74
2021/11/29 04:39:36;;;;;;;9.93;6.18;;;;;;;14.09;41.62;101315.94;5014261;28;20205;-75
2021/11/29 04:42:02;;;;;;;10.15;6.03;;;;;;;14.06;41.84;101305.59;4996706;28;20112;-76
2021/11/29 04:44:29;;;;;;;11.98;7.10;;;;;;;14.26;41.51;101318.66;5014249;28;20068;-74
2021/11/29 04:46:55;;;;;;;10.32;5.68;;;;;;;14.24;41.57;101312.69;5014228;28;20022;-81
2021/11/29 04:49:20;;;;;;;10.57;6.18;;;;;;;14.28;41.55;101313.69;5013767;28;20116;-75
2021/11/29 04:51:46;;;;;;;11.88;6.85;;;;;;;14.27;41.56;101323.03;4996513;28;20084;-74
2021/11/29 04:54:13;;;;;;;11.40;6.50;;;;;;;14.33;41.47;101321.75;4996453;28;20030;-76
2021/11/29 04:56:41;;;;;;;10.05;6.93;;;;;;;14.45;41.20;101318.34;5014002;28;20489;-75
2021/11/29 04:59:07;;;;;;;10.13;7.03;;;;;;;14.48;41.37;101317.72;4996369;28;20100;-75
2021/11/29 05:01:32;;;;;;;10.18;6.47;;;;;;;14.50;41.40;101311.88;5013899;28;20484;-75
2021/11/29 05:03:58;;;;;;;11.68;6.93;;;;;;;14.49;41.22;101319.34;5013836;28;20064;-75
2021/11/29 05:06:25;;;;;;;10.75;6.57;;;;;;;14.50;41.31;101315.44;5013764;28;20084;-74
2021/11/29 05:08:51;;;;;;;8.18;5.95;;;;;;;14.56;41.14;101319.66;5013644;28;20113;-81
2021/11/29 05:11:17;;;;;;;10.65;6.53;;;;;;;14.48;41.54;101323.22;5013591;28;20030;-75
2021/11/29 05:13:43;;;;;;;10.25;6.93;;;;;;;14.52;41.09;101318.69;5013702;28;20021;-75
2021/11/29 05:16:09;;;;;;;12.90;6.90;;;;;;;14.56;41.36;101318.84;5013574;28;20022;-79
2021/11/29 05:18:35;;;;;;;9.68;7.32;;;;;;;14.57;41.26;101312.22;4996028;28;20108;-75
2021/11/29 05:21:01;;;;;;;9.82;6.70;;;;;;;14.56;41.25;101321.59;5013511;28;20200;-75
2021/11/29 05:23:27;;;;;;;12.60;6.53;;;;;;;14.64;41.09;101315.28;5013434;28;20026;-75
2021/11/29 05:25:53;;;;;;;13.13;6.93;;;;;;;14.62;41.24;101309.28;5013306;28;20436;-75
2021/11/29 05:28:18;;;;;;;14.77;7.65;;;;;;;14.65;41.49;101305.88;5013324;28;20034;-75
2021/11/29 05:30:44;;;;;;;11.85;7.13;;;;;;;14.64;41.22;101305.06;5013366;28;20427;-76
2021/11/29 05:33:11;;;;;;;12.85;6.80;;;;;;;14.62;41.51;101312.84;5013583;28;20049;-75
2021/11/29 05:35:37;;;;;;;13.82;7.47;;;;;;;14.66;41.46;101310.25;5013307;28;20056;-75
2021/11/29 05:38:03;;;;;;;10.63;6.95;;;;;;;14.64;41.43;101309.78;5013179;28;20113;-77
2021/11/29 05:40:29;;;;;;;12.68;6.78;;;;;;;14.62;41.44;101318.34;5012698;28;20579;-75
2021/11/29 05:42:56;;;;;;;16.38;7.22;;;;;;;14.63;41.77;101314.47;5013118;28;20148;-75
2021/11/29 05:45:22;;;;;;;12.13;7.53;;;;;;;14.69;41.46;101313.16;5013397;28;20060;-75
2021/11/29 05:47:47;;;;;;;14.73;6.57;;;;;;;14.63;41.74;101311.72;5013084;28;20441;-76
2021/11/29 05:50:15;;;;;;;9.10;6.35;;;;;;;14.70;41.48;101309.28;5013001;28;20030;-79
2021/11/29 05:52:42;;;;;;;12.63;6.45;;;;;;;14.74;41.46;101314.94;5013019;28;20026;-75
2021/11/29 05:55:10;;;;;;;13.25;7.95;;;;;;;14.74;41.52;101312.19;5012980;28;20022;-75
2021/11/29 05:57:36;;;;;;;11.13;6.85;;;;;;;14.70;41.57;101309.28;5012858;28;20021;-75
2021/11/29 06:00:03;;;;;;;12.48;7.00;;;;;;;14.71;41.47;101310.09;5012861;28;20030;-76
2021/11/29 06:02:29;;;;;;;13.20;6.75;;;;;;;14.69;41.61;101307.66;5012863;28;20029;-75
2021/11/29 06:04:55;;;;;;;9.82;6.53;;;;;;;14.74;41.45;101303.13;5012797;28;20559;-74
2021/11/29 06:07:20;;;;;;;12.32;7.40;;;;;;;14.66;41.82;101305.56;5012810;28;20041;-75
2021/11/29 06:09:46;;;;;;;10.82;6.80;;;;;;;14.69;41.61;101290.34;5012787;28;20033;-75
2021/11/29 06:12:11;;;;;;;12.77;8.07;;;;;;;14.70;41.63;101300.22;5012748;28;20029;-79
2021/11/29 06:14:37;;;;;;;10.48;6.93;;;;;;;14.63;41.99;101302.66;5012752;28;20049;-76
2021/11/29 06:17:03;;;;;;;12.60;7.68;;;;;;;14.65;41.86;101306.69;5012698;28;20433;-75
2021/11/29 06:19:28;;;;;;;13.05;8.23;;;;;;;14.54;42.20;101305.44;5012772;28;20041;-74
2021/11/29 06:21:54;;;;;;;13.73;6.68;;;;;;;14.69;41.99;101306.84;5012668;28;20026;-75
2021/11/29 06:24:19;;;;;;;13.68;7.82;;;;;;;14.67;42.00;101301.69;5012660;28;20096;-81
2021/11/29 06:26:45;;;;;;;13.57;8.02;;;;;;;14.67;41.80;101311.88;5012470;28;20137;-75
2021/11/29 06:29:11;;;;;;;15.80;9.07;;;;;;;14.71;41.84;101304.56;5012546;28;20030;-75
2021/11/29 06:31:38;;;;;;;8.90;6.50;;;;;;;14.75;41.57;101297.31;5012545;28;20456;-75
2021/11/29 06:34:04;;;;;;;10.75;6.47;;;;;;;14.75;41.87;101304.75;5012503;28;20022;-76
2021/11/29 06:36:31;;;;;;;16.75;7.60;;;;;;;14.74;41.92;101303.13;5012568;28;20026;-75
2021/11/29 06:38:58;;;;;;;13.77;6.38;;;;;;;14.74;41.96;101303.13;5012500;28;20033;-76
2021/11/29 06:41:24;;;;;;;13.73;7.22;;;;;;;14.69;42.06;101301.34;5012517;28;20472;-74
2021/11/29 06:43:50;;;;;;;13.68;5.82;;;;;;;14.66;42.06;101293.75;5012517;28;20030;-75
2021/11/29 06:46:17;;;;;;;13.50;6.30;;;;;;;14.67;42.00;101295.38;5012503;28;20389;-74
2021/11/29 06:48:43;;;;;;;12.30;6.97;;;;;;;14.66;42.21;101291.00;4994710;28;20096;-75
2021/11/29 06:51:09;;;;;;;16.67;6.15;;;;;;;14.59;42.46;101286.00;5012377;28;20546;-74
2021/11/29 06:53:34;;;;;;;10.25;5.90;;;;;;;14.53;42.34;101292.00;4997353;28;20026;-74
2021/11/29 06:56:01;;;;;;;11.57;5.53;;;;;;;14.58;42.44;101298.13;5016224;28;20391;-74
2021/11/29 06:58:28;;;;;;;8.77;5.45;;;;;;;14.56;42.43;101296.84;5016167;28;20030;-74
2021/11/29 07:00:54;;;;;;;11.30;4.45;;;;;;;14.55;42.57;101289.72;5016050;28;20041;-80
2021/11/29 07:03:20;;;;;;;10.85;4.60;;;;;;;14.57;42.40;101299.25;5016036;28;20050;-74
2021/11/29 07:05:49;;;;;;;14.27;7.30;;;;;;;14.34;43.12;101298.63;4998438;28;20054;-75
2021/11/29 07:08:15;;;;;;;9.55;3.80;;;;;;;14.25;43.33;101311.56;5015873;28;20033;-78
2021/11/29 07:10:40;;;;;;;7.80;4.63;;;;;;;14.21;43.47;101310.59;4998337;28;20089;-74
2021/11/29 07:13:13;;;;;;;10.25;4.45;;;;;;;14.17;43.83;101317.88;5015709;28;20116;-75
2021/11/29 07:15:40;;;;;;;6.82;3.92;;;;;;;14.22;43.65;101309.47;4997976;28;20362;-80
2021/11/29 07:18:07;;;;;;;7.72;3.92;;;;;;;14.24;43.56;101309.13;4997821;28;20034;-75
2021/11/29 07:20:33;;;;;;;8.63;4.25;;;;;;;14.19;43.94;101310.09;4997018;28;20109;-74
2021/11/29 07:22:59;;;;;;;7.38;3.67;;;;;;;14.21;43.66;101302.38;5014611;28;20113;-75
2021/11/29 07:25:25;;;;;;;5.82;3.40;;;;;;;14.19;43.75;101304.59;5014588;28;20057;-75
2021/11/29 07:27:51;;;;;;;6.15;3.88;;;;;;;14.22;43.98;101314.16;4996925;28;20041;-74
2021/11/29 07:30:20;;;;;;;9.27;4.60;;;;;;;14.12;44.15;101310.56;5015570;28;20508;-74
2021/11/29 07:32:45;;;;;;;11.93;5.95;;;;;;;14.19;44.09;101323.84;5015506;28;20485;-75
2021/11/29 07:35:12;;;;;;;14.35;6.45;;;;;;;14.20;44.21;101311.72;4997739;28;20033;-75
2021/11/29 07:37:38;;;;;;;11.35;7.28;;;;;;;14.11;44.51;101317.22;5015499;28;20388;-76
2021/11/29 07:40:06;;;;;;;13.88;8.80;;;;;;;14.07;44.58;101320.94;5015372;28;20034;-75
2021/11/29 07:42:32;;;;;;;16.80;9.52;;;;;;;14.06;44.59;101311.91;5015376;28;20033;-75
2021/11/29 07:44:57;;;;;;;18.35;9.52;;;;;;;14.15;44.45;101311.88;5015283;28;20030;-75
2021/11/29 07:47:24;;;;;;;19.48;9.93;;;;;;;14.04;44.79;101318.81;5015268;28;20388;-75
2021/11/29 07:49:51;;;;;;;17.73;10.63;;;;;;;14.19;44.17;101323.03;4997517;28;20488;-75
2021/11/29 07:52:17;;;;;;;16.40;10.50;;;;;;;14.14;44.41;101321.28;5015068;28;20025;-74
2021/11/29 07:54:43;;;;;;;20.55;12.25;;;;;;;14.15;44.69;101326.44;5014751;28;20447;-74
2021/11/29 07:57:11;;;;;;;19.52;11.98;;;;;;;14.22;44.26;101320.47;4997486;28;20037;-75
2021/11/29 07:59:37;;;;;;;21.38;11.80;;;;;;;14.28;44.30;101324.66;5015277;28;20512;-74
2021/11/29 08:02:03;;;;;;;17.67;10.10;;;;;;;14.59;43.69;101312.72;5015138;28;20029;-85
2021/11/29 08:04:28;;;;;;;16.40;11.05;;;;;;;14.69;43.25;101312.34;4996988;28;20600;-75
2021/11/29 08:06:54;;;;;;;18.77;12.25;;;;;;;14.66;43.46;101304.75;5015135;28;20099;-75
2021/11/29 08:09:20;;;;;;;19.73;11.50;;;;;;;14.61;43.67;101302.19;4996998;28;20033;-84
2021/11/29 08:11:46;;;;;;;17.75;10.90;;;;;;;14.70;43.34;101303.78;5014990;28;20097;-74
2021/11/29 08:14:11;;;;;;;15.38;10.68;;;;;;;14.68;43.51;101305.25;5014736;28;20034;-73
2021/11/29 08:16:37;;;;;;;22.70;11.25;;;;;;;14.71;43.41;101308.13;5014797;28;20048;-75
2021/11/29 08:19:03;;;;;;;24.73;11.93;;;;;;;14.66;43.92;101313.00;4997430;28;20377;-80
2021/11/29 08:21:28;;;;;;;18.35;10.50;;;;;;;14.59;43.92;101307.22;5014780;28;20089;-75
2021/11/29 08:23:54;;;;;;;18.00;9.93;;;;;;;14.65;43.98;101311.38;5014815;28;20044;-85
2021/11/29 08:26:19;;;;;;;14.20;9.10;;;;;;;14.53;44.03;101314.00;5013384;28;20504;-74
2021/11/29 08:28:45;;;;;;;17.40;9.90;;;;;;;14.63;44.25;101308.16;5013712;28;20061;-74
2021/11/29 08:31:11;;;;;;;16.05;9.18;;;;;;;14.64;44.21;101312.53;5014440;28;20033;-84
2021/11/29 08:33:36;;;;;;;12.70;8.63;;;;;;;14.69;44.05;101307.66;5014550;28;20034;-79
2021/11/29 08:36:02;;;;;;;16.05;8.40;;;;;;;14.69;44.10;101310.41;4996987;28;20061;-76
2021/11/29 08:38:28;;;;;;;13.10;7.32;;;;;;;14.70;44.04;101309.28;5013420;28;20040;-85
2021/11/29 08:40:54;;;;;;;11.32;7.38;;;;;;;14.72;44.19;101306.19;4994850;28;20120;-74
2021/11/29 08:43:20;;;;;;;13.25;7.55;;;;;;;14.77;44.08;101297.78;4994890;28;20026;-74
2021/11/29 08:45:49;;;;;;;10.80;6.95;;;;;;;14.80;44.20;101297.09;5012757;28;20029;-75
2021/11/29 08:48:15;;;;;;;10.80;7.57;;;;;;;14.74;44.53;101303.94;5012466;28;20030;-75
2021/11/29 08:50:44;;;;;;;14.88;6.85;;;;;;;14.77;44.14;101300.53;5013036;28;20092;-85
2021/11/29 08:53:15;;;;;;;12.38;7.43;;;;;;;14.42;45.33;101303.28;5014035;28;20064;-75
2021/11/29 08:55:41;;;;;;;9.98;6.50;;;;;;;14.68;44.30;101292.31;5014226;28;20033;-74
2021/11/29 08:58:08;;;;;;;13.10;7.03;;;;;;;14.51;45.41;101291.50;5014005;28;20026;-75
2021/11/29 09:00:36;;;;;;;15.30;7.60;;;;;;;14.68;44.99;101292.31;5014068;28;20099;-75
2021/11/29 09:03:06;;;;;;;15.57;7.80;;;;;;;14.78;44.90;101288.38;4996404;28;20025;-75
2021/11/29 09:05:32;;;;;;;9.98;7.05;;;;;;;14.90;44.43;101288.53;5013932;28;20026;-75
2021/11/29 09:07:58;;;;;;;10.80;7.03;;;;;;;14.55;45.44;101289.72;5013846;28;20037;-84
2021/11/29 09:10:25;;;;;;;12.95;7.10;;;;;;;14.84;44.62;101281.56;5008402;28;20092;-74
2021/11/29 09:12:51;;;;;;;14.48;7.72;;;;;;;14.88;44.78;101279.75;5013764;28;20033;-75
2021/11/29 09:15:18;;;;;;;13.18;7.75;;;;;;;14.85;44.86;101274.94;5012976;28;20038;-75
2021/11/29 09:17:44;;;;;;;10.88;8.27;;;;;;;14.95;45.02;101271.81;5013606;28;20026;-75
2021/11/29 09:20:14;;;;;;;12.85;8.13;;;;;;;14.96;44.89;101272.63;5013690;28;20506;-75
2021/11/29 09:22:40;;;;;;;24.40;10.90;;;;;;;14.90;45.12;101272.00;4995921;28;20074;-75
2021/11/29 09:25:08;;;;;;;15.90;9.23;;;;;;;15.06;44.90;101277.78;5013264;28;20026;-75
2021/11/29 09:27:33;;;;;;;11.60;7.75;;;;;;;14.87;45.58;101286.41;5013579;28;20030;-75
2021/11/29 09:29:59;;;;;;;12.00;7.72;;;;;;;14.98;45.33;101273.13;5013484;28;20036;-75
2021/11/29 09:32:25;;;;;;;14.30;8.15;;;;;;;14.79;46.12;101275.44;5013478;28;20026;-75
2021/11/29 09:34:51;;;;;;;13.20;8.70;;;;;;;14.77;46.36;101273.00;4995938;28;20060;-79
2021/11/29 09:37:20;;;;;;;15.85;8.80;;;;;;;14.73;46.38;101272.03;5001784;28;20101;-75
2021/11/29 09:39:46;;;;;;;11.65;7.80;;;;;;;14.70;46.80;101287.28;4981523;28;20038;-86
2021/11/29 09:42:12;;;;;;;11.60;8.25;;;;;;;14.82;46.39;101281.09;4968143;28;20030;-84
2021/11/29 09:44:38;;;;;;;10.95;7.68;;;;;;;14.68;47.18;101280.50;4999507;28;20101;-74
2021/11/29 09:47:04;;;;;;;13.77;8.07;;;;;;;14.52;47.81;101291.19;4976599;28;20066;-74
2021/11/29 09:49:30;;;;;;;15.82;8.23;;;;;;;14.52;47.97;101288.44;4981374;28;20038;-75
2021/11/29 09:51:59;;;;;;;15.45;9.20;;;;;;;14.71;47.29;101280.63;4985379;28;20023;-84
2021/11/29 09:54:28;;;;;;;13.05;9.05;;;;;;;14.77;47.66;101292.28;4990411;28;20031;-83
2021/11/29 09:56:53;;;;;;;12.13;8.68;;;;;;;14.40;48.48;101282.78;4961459;28;20094;-84
2021/11/29 09:59:23;;;;;;;14.43;8.32;;;;;;;14.53;48.76;101278.25;4956766;28;20023;-75
2021/11/29 10:01:51;;;;;;;13.38;9.32;;;;;;;14.79;47.95;101279.00;4973886;28;20023;-75
2021/11/29 10:04:17;;;;;;;12.02;8.82;;;;;;;14.86;47.83;101287.53;4973817;28;20034;-75
2021/11/29 10:06:45;;;;;;;16.00;9.63;;;;;;;14.96;47.91;101289.97;4973626;28;20027;-76
2021/11/29 10:09:32;;;;;;;18.20;8.95;;;;;;;14.97;47.88;101288.81;4973706;28;20027;-76
2021/11/29 10:12:00;;;;;;;15.52;8.88;;;;;;;15.08;47.49;101291.19;4974142;28;20030;-76
2021/11/29 10:14:26;;;;;;;14.82;8.85;;;;;;;14.66;49.10;101291.81;4956394;28;20503;-76
2021/11/29 10:16:59;;;;;;;13.93;9.75;;;;;;;14.86;48.46;101286.75;4973873;28;20031;-76
2021/11/29 10:19:25;;;;;;;13.02;10.15;;;;;;;15.02;48.28;101292.50;4973802;28;20591;-86
2021/11/29 10:21:51;;;;;;;14.82;10.00;;;;;;;14.87;49.00;101291.91;4973733;28;20115;-77
2021/11/29 10:24:19;;;;;;;13.32;8.65;;;;;;;15.34;47.60;101289.16;4956381;28;20023;-76
2021/11/29 10:26:50;;;;;;;12.93;9.02;;;;;;;15.33;48.07;101293.03;4990092;28;20529;-76
2021/11/29 10:29:16;;;;;;;14.85;9.70;;;;;;;15.30;48.53;101276.38;4979571;28;20093;-76
2021/11/29 10:31:53;;;;;;;13.20;8.95;;;;;;;15.35;48.79;101290.75;4996936;28;20030;-75
2021/11/29 10:34:20;;;;;;;15.35;8.60;;;;;;;15.43;48.57;101284.41;4997133;28;20129;-75
2021/11/29 10:37:02;;;;;;;12.43;9.02;;;;;;;15.15;49.47;101281.28;4996994;28;20054;-75
2021/11/29 10:39:31;;;;;;;15.82;10.68;;;;;;;15.47;48.68;101277.06;4996907;28;20084;-76
2021/11/29 10:42:01;;;;;;;11.02;8.13;;;;;;;15.57;48.59;101281.41;4997117;28;20036;-75
2021/11/29 10:44:31;;;;;;;14.13;8.85;;;;;;;15.48;48.72;101289.69;4979667;28;20034;-86
2021/11/29 10:47:00;;;;;;;12.40;7.95;;;;;;;15.41;49.01;101278.41;4979494;28;20026;-79
2021/11/29 10:49:29;;;;;;;15.48;8.73;;;;;;;15.39;48.84;101283.44;4979466;28;20443;-78
2021/11/29 10:51:58;;;;;;;14.43;8.98;;;;;;;15.27;49.21;101294.38;4979575;28;20026;-82
2021/11/29 10:54:27;;;;;;;12.50;8.38;;;;;;;15.40;48.76;101285.03;4979357;28;20507;-77
2021/11/29 10:56:56;;;;;;;11.02;8.00;;;;;;;15.34;49.43;101291.91;4979132;28;20034;-80
2021/11/29 10:59:25;;;;;;;12.07;8.57;;;;;;;15.64;48.63;101280.88;4977741;28;20030;-76
2021/11/29 11:01:55;;;;;;;14.50;10.23;;;;;;;15.54;49.12;101285.63;4995197;28;20038;-76
2021/11/29 11:04:29;;;;;;;14.68;10.05;;;;;;;15.78;48.48;101286.97;4977972;28;20045;-78
2021/11/29 11:07:01;;;;;;;15.93;10.43;;;;;;;15.90;48.43;101283.47;4995452;28;20029;-87
2021/11/29 11:09:37;;;;;;;14.40;10.30;;;;;;;15.49;50.08;101285.84;4995467;28;20417;-76
2021/11/29 11:12:14;;;;;;;19.52;10.35;;;;;;;15.85;48.82;101287.22;4977991;28;20394;-76
2021/11/29 11:14:42;;;;;;;17.55;11.80;;;;;;;16.06;48.26;101277.03;4995157;28;20022;-73